Time;durP1;ratioP1;P1;durP2;ratioP2;P2;SDS_P1;SDS_P2;PMS_P1;PMS_P2;Temp;Humidity;BMP_temperature;BMP_pressure;BME280_temperature;BME280_humidity;BME280_pressure;Samples;Min_cycle;Max_cycle;Signal;HPM_P1;HPM_P2
2021/09/28 00:01:36;;;;;;;6.47;5.97;;;17.30;99.90;;;;;;6085740;23;20268;-76
2021/09/28 00:04:04;;;;;;;6.65;6.05;;;17.30;99.90;;;;;;6088177;23;20213;-75
2021/09/28 00:06:31;;;;;;;7.22;6.60;;;17.30;99.90;;;;;;6087405;23;20205;-76
2021/09/28 00:08:58;;;;;;;7.25;6.57;;;17.20;99.90;;;;;;6088461;23;20217;-76
2021/09/28 00:11:25;;;;;;;6.68;6.10;;;17.20;99.90;;;;;;6088767;23;20272;-76
2021/09/28 00:13:52;;;;;;;7.22;6.63;;;17.20;99.90;;;;;;6086935;23;20206;-74
2021/09/28 00:16:19;;;;;;;6.90;6.30;;;17.10;99.90;;;;;;6085941;23;20205;-74
2021/09/28 00:18:46;;;;;;;6.30;5.80;;;17.10;99.90;;;;;;6088507;23;20206;-76
2021/09/28 00:21:15;;;;;;;6.32;5.78;;;17.10;99.90;;;;;;6086395;23;20240;-76
2021/09/28 00:23:42;;;;;;;6.35;5.85;;;17.10;99.90;;;;;;6087770;23;20213;-76
2021/09/28 00:26:09;;;;;;;6.07;5.57;;;17.10;99.90;;;;;;6087803;23;20683;-76
2021/09/28 00:28:36;;;;;;;6.55;5.95;;;17.10;99.90;;;;;;6088025;23;20674;-76
2021/09/28 00:31:03;;;;;;;6.72;6.13;;;17.10;99.90;;;;;;6088702;23;20205;-76
2021/09/28 00:33:30;;;;;;;6.45;5.85;;;17.20;99.90;;;;;;6088506;23;20272;-76
2021/09/28 00:35:57;;;;;;;5.88;5.38;;;17.20;99.90;;;;;;6073760;23;20201;-75
2021/09/28 00:38:25;;;;;;;6.85;6.15;;;17.20;99.90;;;;;;6087599;23;20205;-76
2021/09/28 00:40:53;;;;;;;6.50;5.90;;;17.30;99.90;;;;;;6088740;23;20201;-74
2021/09/28 00:43:20;;;;;;;6.20;5.70;;;17.20;99.90;;;;;;6087704;23;20205;-76
2021/09/28 00:45:47;;;;;;;6.97;6.35;;;17.20;99.90;;;;;;6088083;23;20256;-76
2021/09/28 00:48:14;;;;;;;7.18;6.47;;;17.20;99.90;;;;;;6087929;23;20674;-76
2021/09/28 00:50:41;;;;;;;6.28;5.78;;;17.10;99.90;;;;;;6088022;23;20244;-76
2021/09/28 00:53:09;;;;;;;6.47;5.88;;;17.10;99.90;;;;;;6087368;23;20209;-77
2021/09/28 00:55:38;;;;;;;6.55;6.05;;;17.10;99.90;;;;;;6088086;23;20213;-76
2021/09/28 00:58:08;;;;;;;6.95;6.32;;;17.20;99.90;;;;;;6087926;23;20272;-76
2021/09/28 01:00:37;;;;;;;7.20;6.50;;;17.10;99.90;;;;;;6088201;23;20210;-76
2021/09/28 01:03:07;;;;;;;6.88;6.28;;;17.10;99.90;;;;;;6087610;23;20214;-76
2021/09/28 01:05:34;;;;;;;6.78;6.18;;;17.10;99.90;;;;;;6087188;23;20734;-76
2021/09/28 01:08:01;;;;;;;6.70;6.10;;;17.10;99.90;;;;;;6078607;23;20236;-73
2021/09/28 01:10:28;;;;;;;6.80;6.20;;;17.00;99.90;;;;;;6084771;23;20318;-75
2021/09/28 01:12:56;;;;;;;6.53;5.97;;;17.00;99.90;;;;;;6081665;23;20249;-74
2021/09/28 01:15:24;;;;;;;6.75;6.15;;;17.00;99.90;;;;;;6085978;23;20201;-74
2021/09/28 01:17:51;;;;;;;6.45;5.95;;;17.00;99.90;;;;;;6085194;23;20687;-74
2021/09/28 01:20:18;;;;;;;6.82;6.22;;;17.00;99.90;;;;;;6086841;23;20268;-74
2021/09/28 01:22:46;;;;;;;6.97;6.38;;;17.00;99.90;;;;;;6085973;23;20209;-74
2021/09/28 01:25:13;;;;;;;6.68;6.15;;;17.00;99.90;;;;;;6086308;23;20690;-74
2021/09/28 01:27:41;;;;;;;6.40;5.90;;;17.10;99.90;;;;;;6086197;23;20202;-74
2021/09/28 01:30:10;;;;;;;7.10;6.50;;;17.10;99.90;;;;;;6086592;23;20680;-73
2021/09/28 01:32:37;;;;;;;7.25;6.65;;;17.10;99.90;;;;;;6085890;23;20276;-74
2021/09/28 01:35:06;;;;;;;9.60;8.68;;;17.10;99.90;;;;;;6085213;23;20205;-74
2021/09/28 01:37:33;;;;;;;7.90;7.20;;;17.10;99.90;;;;;;6086379;23;20235;-74
2021/09/28 01:40:01;;;;;;;7.78;7.05;;;17.00;99.90;;;;;;6087572;23;20552;-74
2021/09/28 01:42:28;;;;;;;7.50;6.82;;;17.00;99.90;;;;;;6086036;23;20523;-74
2021/09/28 01:44:55;;;;;;;7.55;6.85;;;17.00;99.90;;;;;;6093402;23;20269;-74
2021/09/28 01:47:22;;;;;;;7.25;6.55;;;17.00;99.90;;;;;;6098951;23;20545;-74
2021/09/28 01:49:49;;;;;;;7.22;6.63;;;17.00;99.90;;;;;;6088153;23;20214;-74
2021/09/28 01:52:16;;;;;;;7.85;7.18;;;17.00;99.90;;;;;;6086141;23;20303;-74
2021/09/28 01:54:43;;;;;;;7.65;7.03;;;17.00;99.90;;;;;;6086757;23;20235;-73
2021/09/28 01:57:11;;;;;;;8.02;7.32;;;17.00;99.90;;;;;;6085819;23;20279;-74
2021/09/28 01:59:38;;;;;;;7.10;6.50;;;17.00;99.90;;;;;;6086450;23;20209;-74
2021/09/28 02:02:05;;;;;;;6.93;6.32;;;17.00;99.90;;;;;;6086121;23;20875;-74
2021/09/28 02:04:32;;;;;;;7.00;6.40;;;17.00;99.90;;;;;;6085114;23;20217;-74
2021/09/28 02:06:59;;;;;;;7.10;6.50;;;17.00;99.90;;;;;;6086689;23;20295;-73
2021/09/28 02:09:27;;;;;;;6.88;6.28;;;17.00;99.90;;;;;;6084402;23;20205;-74
2021/09/28 02:11:54;;;;;;;7.97;7.28;;;17.00;99.90;;;;;;6084733;23;20231;-74
2021/09/28 02:14:26;;;;;;;7.93;7.22;;;16.90;99.90;;;;;;6086941;23;20201;-74
2021/09/28 02:16:54;;;;;;;7.57;6.90;;;16.90;99.90;;;;;;6085142;23;20205;-74
2021/09/28 02:19:21;;;;;;;7.40;6.80;;;16.80;99.90;;;;;;6085481;23;20742;-74
2021/09/28 02:21:48;;;;;;;7.80;7.10;;;16.80;99.90;;;;;;6085178;23;20636;-74
2021/09/28 02:24:15;;;;;;;7.75;7.05;;;16.80;99.90;;;;;;6086000;23;20260;-74
2021/09/28 02:26:43;;;;;;;8.35;7.55;;;16.70;99.90;;;;;;6085264;23;20213;-74
2021/09/28 02:29:10;;;;;;;8.55;7.72;;;16.70;99.90;;;;;;6086144;23;20205;-74
2021/09/28 02:31:39;;;;;;;7.88;7.18;;;16.60;99.90;;;;;;6103583;23;20209;-75
2021/09/28 02:34:09;;;;;;;6.72;6.22;;;16.50;99.90;;;;;;6085654;23;20268;-74
2021/09/28 02:36:36;;;;;;;7.90;7.22;;;16.50;99.90;;;;;;6085673;23;20205;-74
2021/09/28 02:39:04;;;;;;;7.78;7.07;;;16.40;99.90;;;;;;6085301;23;20264;-74
2021/09/28 02:41:31;;;;;;;8.25;7.35;;;16.40;99.90;;;;;;6086026;23;20284;-74
2021/09/28 02:44:00;;;;;;;8.43;7.63;;;16.40;99.90;;;;;;6086881;23;20205;-74
2021/09/28 02:46:27;;;;;;;7.45;6.85;;;16.40;99.90;;;;;;6086058;23;20225;-73
2021/09/28 02:48:56;;;;;;;8.43;7.72;;;16.40;99.90;;;;;;6085776;23;20216;-74
2021/09/28 02:51:23;;;;;;;7.82;7.13;;;16.40;99.90;;;;;;6085154;23;20658;-74
2021/09/28 02:53:50;;;;;;;7.00;6.38;;;16.30;99.90;;;;;;6086131;23;20210;-73
2021/09/28 02:56:17;;;;;;;7.57;6.97;;;16.30;99.90;;;;;;6085343;23;20256;-74
2021/09/28 02:58:44;;;;;;;6.78;6.18;;;16.30;99.90;;;;;;6086401;23;20269;-74
2021/09/28 03:01:11;;;;;;;7.38;6.63;;;16.40;99.90;;;;;;6084656;23;20690;-74
2021/09/28 03:03:38;;;;;;;7.60;6.95;;;16.30;99.90;;;;;;6085919;23;20205;-74
2021/09/28 03:06:07;;;;;;;7.20;6.60;;;16.40;99.90;;;;;;6085620;23;20210;-75
2021/09/28 03:08:34;;;;;;;7.72;6.93;;;16.40;99.90;;;;;;6085017;23;20213;-75
2021/09/28 03:11:01;;;;;;;7.88;7.28;;;16.30;99.90;;;;;;6086310;23;20205;-74
2021/09/28 03:13:28;;;;;;;8.32;7.63;;;16.30;99.90;;;;;;6085221;23;20280;-74
2021/09/28 03:15:55;;;;;;;7.88;7.18;;;16.30;99.90;;;;;;6095868;23;20742;-75
2021/09/28 03:18:22;;;;;;;7.30;6.68;;;16.30;99.90;;;;;;6091088;23;20213;-75
2021/09/28 03:20:49;;;;;;;7.07;6.47;;;16.30;99.90;;;;;;6086705;23;20209;-75
2021/09/28 03:23:17;;;;;;;7.28;6.57;;;16.30;99.90;;;;;;6085772;23;20209;-74
2021/09/28 03:25:45;;;;;;;7.18;6.57;;;16.20;99.90;;;;;;6085413;23;20209;-74
2021/09/28 03:28:15;;;;;;;8.15;7.38;;;16.20;99.90;;;;;;6085593;23;20214;-74
2021/09/28 03:30:42;;;;;;;7.80;7.10;;;16.20;99.90;;;;;;6085930;23;20205;-74
2021/09/28 03:33:10;;;;;;;8.55;7.85;;;16.10;99.90;;;;;;6085577;23;20265;-74
2021/09/28 03:35:37;;;;;;;7.72;7.03;;;16.10;99.90;;;;;;6086744;23;20488;-74
2021/09/28 03:38:04;;;;;;;7.63;6.93;;;16.00;99.90;;;;;;6086998;23;20217;-74
2021/09/28 03:40:32;;;;;;;7.88;7.18;;;16.00;99.90;;;;;;6089264;23;20209;-74
2021/09/28 03:42:59;;;;;;;7.95;7.25;;;15.90;99.90;;;;;;6087802;23;20256;-74
2021/09/28 03:45:26;;;;;;;8.13;7.43;;;15.80;99.90;;;;;;6087921;23;20213;-74
2021/09/28 03:47:53;;;;;;;7.38;6.75;;;15.80;99.90;;;;;;6086492;23;20264;-74
2021/09/28 03:50:20;;;;;;;8.32;7.63;;;15.80;99.90;;;;;;6087264;23;20209;-74
2021/09/28 03:52:47;;;;;;;7.97;7.28;;;15.80;99.90;;;;;;6087104;23;20214;-74
2021/09/28 03:55:19;;;;;;;8.05;7.22;;;15.80;99.90;;;;;;6087404;23;20197;-74
2021/09/28 03:57:48;;;;;;;7.88;7.28;;;15.90;99.90;;;;;;6087477;23;20563;-74
2021/09/28 04:00:16;;;;;;;7.38;6.70;;;15.90;99.90;;;;;;6091786;23;20229;-75
2021/09/28 04:02:43;;;;;;;7.13;6.43;;;15.90;99.90;;;;;;6097828;23;20218;-75
2021/09/28 04:05:11;;;;;;;7.03;6.43;;;15.90;99.90;;;;;;6086768;23;20212;-76
2021/09/28 04:07:38;;;;;;;7.30;6.70;;;15.90;99.90;;;;;;6087466;23;20213;-75
2021/09/28 04:10:07;;;;;;;8.93;6.90;;;16.00;99.90;;;;;;6086886;23;20209;-75
2021/09/28 04:12:34;;;;;;;7.60;6.97;;;16.00;99.90;;;;;;6086921;23;20260;-75
2021/09/28 04:15:04;;;;;;;8.50;7.80;;;15.90;99.90;;;;;;6087625;23;20213;-75
2021/09/28 04:17:31;;;;;;;7.40;6.80;;;15.90;99.90;;;;;;6087391;23;20209;-75
2021/09/28 04:19:59;;;;;;;7.90;7.20;;;15.90;99.90;;;;;;6087701;23;20288;-75
2021/09/28 04:22:27;;;;;;;7.60;7.00;;;15.90;99.90;;;;;;6086095;23;20209;-74
2021/09/28 04:24:55;;;;;;;7.55;6.85;;;15.90;99.90;;;;;;6087310;23;20214;-75
2021/09/28 04:27:22;;;;;;;7.20;6.50;;;15.80;99.90;;;;;;6085726;23;20287;-75
2021/09/28 04:29:49;;;;;;;7.38;6.78;;;15.80;99.90;;;;;;6084154;23;20221;-75
2021/09/28 04:32:17;;;;;;;7.53;6.90;;;15.80;99.90;;;;;;6086194;23;20261;-74
2021/09/28 04:34:44;;;;;;;8.63;7.85;;;15.80;99.90;;;;;;6087006;23;20280;-75
2021/09/28 04:37:11;;;;;;;8.23;7.50;;;15.70;99.90;;;;;;6086697;23;20202;-75
2021/09/28 04:39:38;;;;;;;7.85;7.15;;;15.70;99.90;;;;;;6086257;23;20293;-75
2021/09/28 04:42:06;;;;;;;8.93;8.13;;;15.60;99.90;;;;;;6086987;23;20236;-75
2021/09/28 04:44:33;;;;;;;8.48;7.50;;;15.60;99.90;;;;;;6086982;23;20218;-75
2021/09/28 04:47:00;;;;;;;8.07;7.38;;;15.50;99.90;;;;;;6100697;23;20722;-76
2021/09/28 04:49:29;;;;;;;8.32;7.63;;;15.50;99.90;;;;;;6088883;23;20213;-76
2021/09/28 04:51:56;;;;;;;8.20;7.50;;;15.50;99.90;;;;;;6086785;23;20233;-76
2021/09/28 04:54:23;;;;;;;8.10;7.40;;;15.50;99.90;;;;;;6087255;23;20205;-75
2021/09/28 04:56:50;;;;;;;8.07;7.38;;;15.50;99.90;;;;;;6086108;23;20208;-75
2021/09/28 04:59:17;;;;;;;7.95;7.25;;;15.50;99.90;;;;;;6086243;23;20201;-75
2021/09/28 05:01:44;;;;;;;7.88;7.28;;;15.50;99.90;;;;;;6085590;23;20265;-75
2021/09/28 05:04:11;;;;;;;7.80;7.10;;;15.50;99.90;;;;;;6084029;23;20209;-75
2021/09/28 05:06:39;;;;;;;8.25;7.55;;;15.50;99.90;;;;;;6084562;23;20757;-75
2021/09/28 05:09:06;;;;;;;8.15;7.45;;;15.40;99.90;;;;;;6084407;23;20241;-75
2021/09/28 05:11:33;;;;;;;8.48;7.78;;;15.40;99.90;;;;;;6085269;23;20304;-75
2021/09/28 05:14:00;;;;;;;8.23;7.53;;;15.30;99.90;;;;;;6085845;23;20757;-75
2021/09/28 05:16:28;;;;;;;7.68;6.97;;;15.30;99.90;;;;;;6071671;23;20201;-74
2021/09/28 05:18:55;;;;;;;8.25;7.50;;;15.30;99.90;;;;;;6083094;23;20257;-75
2021/09/28 05:21:22;;;;;;;7.75;7.10;;;15.30;99.90;;;;;;6084706;23;20662;-76
2021/09/28 05:23:50;;;;;;;7.40;6.80;;;15.30;99.90;;;;;;6085103;23;20239;-75
2021/09/28 05:26:18;;;;;;;7.93;7.20;;;15.30;99.90;;;;;;6085523;23;20213;-75
2021/09/28 05:28:45;;;;;;;7.72;7.07;;;15.30;99.90;;;;;;6084866;23;20614;-75
2021/09/28 05:31:12;;;;;;;7.88;7.18;;;15.30;99.90;;;;;;6087792;23;20205;-76
2021/09/28 05:33:39;;;;;;;7.22;6.63;;;15.30;99.90;;;;;;6086556;23;20210;-76
2021/09/28 05:36:06;;;;;;;7.88;7.10;;;15.20;99.90;;;;;;6084826;23;20202;-76
2021/09/28 05:38:34;;;;;;;8.00;7.30;;;15.20;99.90;;;;;;6084556;23;20221;-77
2021/09/28 05:41:06;;;;;;;7.05;6.43;;;15.30;99.90;;;;;;6086408;23;20285;-76
2021/09/28 05:43:33;;;;;;;7.88;7.18;;;15.30;99.90;;;;;;6085496;23;20217;-75
2021/09/28 05:46:00;;;;;;;6.68;6.18;;;15.30;99.90;;;;;;6086952;23;20487;-75
2021/09/28 05:48:27;;;;;;;7.45;6.78;;;15.40;99.90;;;;;;6085504;23;20222;-75
2021/09/28 05:50:55;;;;;;;7.60;7.00;;;15.40;99.90;;;;;;6084906;23;20611;-76
2021/09/28 05:53:22;;;;;;;7.47;6.78;;;15.40;99.90;;;;;;6084542;23;20216;-76
2021/09/28 05:55:49;;;;;;;7.18;6.50;;;15.40;99.90;;;;;;6085758;23;20694;-76
2021/09/28 05:58:18;;;;;;;7.85;7.15;;;15.40;99.90;;;;;;6085059;23;20213;-75
2021/09/28 06:00:45;;;;;;;8.10;7.40;;;15.40;99.90;;;;;;6086951;23;20733;-76
2021/09/28 06:03:12;;;;;;;7.72;7.13;;;15.40;99.90;;;;;;6084741;23;20205;-76
2021/09/28 06:05:39;;;;;;;7.30;6.68;;;15.40;99.90;;;;;;6086600;23;20532;-74
2021/09/28 06:08:06;;;;;;;7.50;6.90;;;15.40;99.90;;;;;;6084760;23;20205;-75
2021/09/28 06:10:33;;;;;;;8.23;7.53;;;15.90;99.90;;;;;;6086636;23;20217;-75
2021/09/28 06:13:01;;;;;;;8.43;7.72;;;16.40;99.90;;;;;;6086571;23;20205;-76
2021/09/28 06:15:29;;;;;;;7.90;7.20;;;17.00;99.90;;;;;;6093935;23;20245;-75
2021/09/28 06:17:57;;;;;;;8.20;7.50;;;17.50;99.90;;;;;;6096065;23;20222;-75
2021/09/28 06:20:24;;;;;;;7.93;7.22;;;18.10;99.90;;;;;;6086385;23;20209;-75
2021/09/28 06:22:51;;;;;;;8.50;7.78;;;18.50;99.90;;;;;;6087269;23;20528;-75
2021/09/28 06:25:18;;;;;;;8.32;7.68;;;18.90;99.90;;;;;;6087401;23;20588;-74
2021/09/28 06:27:45;;;;;;;9.15;8.02;;;19.10;99.90;;;;;;6086125;23;20212;-75
2021/09/28 06:30:13;;;;;;;8.95;8.05;;;19.40;99.90;;;;;;6085989;23;20205;-75
2021/09/28 06:32:41;;;;;;;8.05;7.35;;;19.60;99.90;;;;;;6083964;23;20529;-74
2021/09/28 06:35:09;;;;;;;7.88;7.18;;;19.90;99.90;;;;;;6084094;23;20205;-74
2021/09/28 06:37:36;;;;;;;8.65;7.68;;;20.10;99.90;;;;;;6083371;23;20217;-75
2021/09/28 06:40:04;;;;;;;8.80;8.00;;;20.30;99.90;;;;;;6085847;23;20562;-74
2021/09/28 06:42:31;;;;;;;7.93;7.22;;;20.40;99.90;;;;;;6084710;23;20276;-73
2021/09/28 06:44:58;;;;;;;8.95;8.15;;;20.70;99.90;;;;;;6085513;23;20197;-74
2021/09/28 06:47:25;;;;;;;8.90;7.95;;;20.90;99.90;;;;;;6084980;23;20210;-74
2021/09/28 06:49:53;;;;;;;8.70;7.90;;;21.00;99.90;;;;;;6080904;23;20224;-75
2021/09/28 06:52:20;;;;;;;7.88;7.18;;;21.20;99.90;;;;;;6082932;23;20855;-75
2021/09/28 06:54:47;;;;;;;7.95;7.25;;;21.50;99.90;;;;;;6084605;23;20268;-74
2021/09/28 06:57:14;;;;;;;9.15;7.30;;;21.70;99.90;;;;;;6083671;23;20201;-75
2021/09/28 06:59:41;;;;;;;8.00;7.30;;;21.80;99.90;;;;;;6083912;23;20748;-75
2021/09/28 07:02:08;;;;;;;8.00;7.30;;;21.70;99.90;;;;;;6085331;23;20205;-75
2021/09/28 07:04:35;;;;;;;7.57;6.88;;;21.70;99.90;;;;;;6084628;23;20851;-75
2021/09/28 07:07:04;;;;;;;7.60;6.95;;;21.70;99.90;;;;;;6084121;23;20265;-75
2021/09/28 07:09:31;;;;;;;7.82;7.20;;;21.80;99.90;;;;;;6011827;23;20308;-76
2021/09/28 07:11:58;;;;;;;8.13;7.43;;;21.90;99.90;;;;;;6082161;23;20280;-75
2021/09/28 07:14:25;;;;;;;8.18;7.35;;;21.90;99.90;;;;;;6083253;23;20252;-76
2021/09/28 07:16:52;;;;;;;7.65;6.97;;;21.80;99.90;;;;;;6082735;23;20217;-73
2021/09/28 07:19:19;;;;;;;6.95;6.43;;;21.80;99.90;;;;;;6084846;23;20209;-75
2021/09/28 07:21:46;;;;;;;7.60;6.93;;;22.00;99.90;;;;;;6085278;23;20213;-76
2021/09/28 07:24:15;;;;;;;7.35;6.60;;;22.10;99.90;;;;;;6083295;23;20205;-75
2021/09/28 07:26:42;;;;;;;7.68;6.85;;;22.20;99.90;;;;;;6084106;23;20280;-76
2021/09/28 07:29:09;;;;;;;7.20;6.43;;;22.40;99.90;;;;;;6082797;23;20209;-76
2021/09/28 07:31:36;;;;;;;7.45;6.47;;;22.30;99.90;;;;;;6084416;23;20260;-76
2021/09/28 07:34:03;;;;;;;6.90;6.28;;;22.30;99.90;;;;;;6083193;23;20761;-75
2021/09/28 07:36:30;;;;;;;7.85;7.15;;;22.40;99.90;;;;;;6086793;23;20276;-76
2021/09/28 07:38:57;;;;;;;7.10;6.50;;;22.50;99.90;;;;;;6071900;23;20499;-75
2021/09/28 07:41:26;;;;;;;7.15;6.43;;;22.60;99.90;;;;;;6086032;23;20264;-75
2021/09/28 07:43:53;;;;;;;7.65;7.00;;;22.70;99.90;;;;;;6085595;23;20209;-74
2021/09/28 07:46:20;;;;;;;6.97;6.38;;;22.80;99.90;;;;;;6085779;23;20663;-76
2021/09/28 07:48:48;;;;;;;6.90;6.30;;;22.90;99.90;;;;;;6085439;23;20221;-75
2021/09/28 07:51:15;;;;;;;7.40;6.57;;;22.90;99.90;;;;;;6085992;23;20481;-75
2021/09/28 07:53:46;;;;;;;6.80;6.20;;;22.80;99.90;;;;;;6085784;23;20215;-75
2021/09/28 07:56:13;;;;;;;7.63;6.93;;;22.70;99.90;;;;;;6085870;23;20233;-76
2021/09/28 07:58:41;;;;;;;6.82;6.32;;;22.80;99.90;;;;;;6085148;23;20960;-76
2021/09/28 08:01:08;;;;;;;6.50;5.97;;;22.70;99.90;;;;;;6086433;23;20232;-76
2021/09/28 08:03:35;;;;;;;7.15;6.45;;;22.80;99.90;;;;;;6084943;23;20206;-75
2021/09/28 08:06:02;;;;;;;6.95;6.35;;;23.00;99.90;;;;;;6086250;23;20210;-76
2021/09/28 08:08:29;;;;;;;6.90;6.30;;;23.10;99.90;;;;;;6085817;23;20209;-75
2021/09/28 08:10:57;;;;;;;6.93;6.30;;;23.10;99.90;;;;;;6085472;23;20601;-76
2021/09/28 08:13:24;;;;;;;6.07;5.57;;;23.20;99.90;;;;;;6084903;23;20212;-76
2021/09/28 08:15:52;;;;;;;7.28;6.55;;;23.20;99.90;;;;;;6086039;23;20217;-76
2021/09/28 08:18:19;;;;;;;6.88;6.28;;;23.20;99.90;;;;;;6085067;23;20201;-75
2021/09/28 08:20:48;;;;;;;7.30;6.20;;;23.30;99.90;;;;;;6085013;23;20217;-75
2021/09/28 08:23:16;;;;;;;6.90;6.20;;;23.30;99.90;;;;;;6086797;23;20288;-76
2021/09/28 08:25:59;;;;;;;7.13;6.10;;;23.40;99.90;;;;;;6087818;23;20616;-75
2021/09/28 08:31:13;;;;;;;7.88;6.03;;;23.60;99.90;;;;;;6086336;23;20562;-75
2021/09/28 08:33:40;;;;;;;6.40;5.90;;;23.70;99.90;;;;;;6087289;23;20595;-75
2021/09/28 08:36:08;;;;;;;8.70;5.47;;;23.90;99.90;;;;;;6084656;23;20205;-75
2021/09/28 08:38:35;;;;;;;6.10;5.60;;;24.00;99.90;;;;;;6086512;23;20209;-76
2021/09/28 08:41:03;;;;;;;5.85;5.35;;;23.80;99.90;;;;;;6087350;23;20221;-76
2021/09/28 08:43:30;;;;;;;5.95;5.45;;;23.80;99.90;;;;;;6087060;23;20722;-75
2021/09/28 08:45:57;;;;;;;5.03;4.63;;;24.00;99.90;;;;;;6086553;23;20204;-76
2021/09/28 08:48:27;;;;;;;6.03;5.40;;;24.20;99.90;;;;;;6085414;23;20201;-75
2021/09/28 08:50:54;;;;;;;7.70;5.97;;;24.30;99.90;;;;;;6086581;23;20261;-76
2021/09/28 08:53:22;;;;;;;5.63;5.13;;;24.50;99.90;;;;;;6086291;23;20201;-75
2021/09/28 08:55:49;;;;;;;5.65;5.15;;;24.70;99.90;;;;;;6086930;23;20210;-76
2021/09/28 08:58:18;;;;;;;6.00;5.50;;;24.80;99.90;;;;;;6086177;23;20209;-76
2021/09/28 09:00:46;;;;;;;5.95;5.45;;;24.70;99.90;;;;;;6087017;23;20268;-76
2021/09/28 09:03:27;;;;;;;5.97;5.47;;;24.60;99.90;;;;;;6086924;23;20252;-76
2021/09/28 09:05:56;;;;;;;6.38;5.80;;;24.80;99.90;;;;;;6086862;23;20260;-75
2021/09/28 09:08:28;;;;;;;6.10;5.60;;;25.00;99.90;;;;;;6086942;23;20215;-75
2021/09/28 09:11:04;;;;;;;5.60;5.20;;;24.90;99.90;;;;;;6086431;23;20264;-76
2021/09/28 09:13:36;;;;;;;6.13;5.63;;;24.90;99.90;;;;;;6087242;23;20207;-75
2021/09/28 09:16:03;;;;;;;6.70;6.10;;;24.80;99.90;;;;;;6086595;23;20202;-76
2021/09/28 09:18:33;;;;;;;6.18;5.57;;;24.70;99.90;;;;;;6087833;23;20209;-76
2021/09/28 09:21:01;;;;;;;6.30;5.70;;;24.50;99.90;;;;;;6086966;23;20272;-75
2021/09/28 09:23:32;;;;;;;6.20;5.60;;;24.70;99.90;;;;;;6086483;23;20205;-76
2021/09/28 09:26:02;;;;;;;6.07;4.75;;;24.70;99.90;;;;;;6087236;23;20244;-76
2021/09/28 09:28:34;;;;;;;7.15;5.63;;;24.70;99.90;;;;;;6086415;23;20611;-75
2021/09/28 09:31:24;;;;;;;5.78;5.28;;;24.80;99.90;;;;;;6087825;23;20213;-76
2021/09/28 09:33:55;;;;;;;6.65;5.85;;;24.90;99.90;;;;;;6085779;23;20228;-76
2021/09/28 09:36:24;;;;;;;6.15;5.57;;;24.90;99.90;;;;;;6087094;23;20210;-76
2021/09/28 09:38:53;;;;;;;5.90;5.40;;;25.10;99.90;;;;;;6085707;23;20209;-76
2021/09/28 09:41:27;;;;;;;6.22;5.63;;;25.20;99.90;;;;;;6086902;23;20804;-75
2021/09/28 09:44:03;;;;;;;6.57;5.95;;;25.40;99.90;;;;;;6085706;23;20667;-76
2021/09/28 09:46:40;;;;;;;5.50;5.00;;;25.30;99.90;;;;;;6087021;23;20221;-76
2021/09/28 09:49:10;;;;;;;6.28;5.60;;;25.40;99.90;;;;;;6085463;23;20276;-76
2021/09/28 09:51:42;;;;;;;5.60;5.10;;;25.50;99.90;;;;;;6087260;23;20217;-76
2021/09/28 09:54:10;;;;;;;6.20;5.60;;;25.50;99.90;;;;;;6085570;23;20288;-76
2021/09/28 09:56:48;;;;;;;5.93;5.38;;;25.70;99.90;;;;;;6086983;23;20265;-75
2021/09/28 09:59:17;;;;;;;6.10;5.60;;;25.70;99.90;;;;;;6086080;23;20209;-75
2021/09/28 10:01:44;;;;;;;5.90;5.32;;;25.70;99.90;;;;;;6086827;23;20205;-75
2021/09/28 10:04:15;;;;;;;5.20;4.70;;;26.00;99.90;;;;;;6086181;23;20213;-76
2021/09/28 10:06:42;;;;;;;6.28;5.70;;;26.30;99.90;;;;;;6086599;23;20206;-76
2021/09/28 10:09:20;;;;;;;6.85;6.22;;;26.30;99.90;;;;;;6085767;23;20217;-76
2021/09/28 10:11:52;;;;;;;5.50;5.10;;;26.00;99.90;;;;;;6086377;23;20213;-76
2021/09/28 10:14:31;;;;;;;7.28;5.95;;;25.70;99.90;;;;;;6086098;23;20225;-75
2021/09/28 10:17:00;;;;;;;5.55;5.10;;;25.70;99.90;;;;;;6085521;23;20677;-76
2021/09/28 10:19:48;;;;;;;8.52;5.78;;;25.80;99.90;;;;;;6085904;23;20205;-76
2021/09/28 10:22:42;;;;;;;5.90;5.40;;;25.80;99.90;;;;;;6085666;23;20201;-76
2021/09/28 10:25:35;;;;;;;5.85;5.35;;;25.80;99.90;;;;;;6085738;23;20203;-75
2021/09/28 10:28:38;;;;;;;6.20;5.60;;;25.90;99.90;;;;;;6086112;23;20211;-75
2021/09/28 10:31:11;;;;;;;6.07;5.15;;;26.00;99.90;;;;;;6085931;23;20197;-76
2021/09/28 10:33:39;;;;;;;6.05;5.00;;;25.90;99.90;;;;;;6085704;23;20316;-76
2021/09/28 10:36:12;;;;;;;5.57;5.07;;;25.90;99.90;;;;;;6086517;23;20659;-76
2021/09/28 10:38:45;;;;;;;6.25;5.13;;;25.70;99.90;;;;;;6085801;23;20205;-76
2021/09/28 10:41:35;;;;;;;5.60;5.20;;;26.00;99.90;;;;;;6086049;23;20209;-76
2021/09/28 10:44:47;;;;;;;5.53;5.03;;;26.10;99.90;;;;;;6085105;23;20484;-76
2021/09/28 10:47:52;;;;;;;6.60;5.18;;;26.00;99.90;;;;;;6085613;23;20209;-77
2021/09/28 10:50:28;;;;;;;5.68;5.15;;;26.00;99.90;;;;;;6085027;23;20339;-75
2021/09/28 10:52:58;;;;;;;5.95;4.70;;;26.10;99.90;;;;;;6086690;23;20209;-75
2021/09/28 10:55:44;;;;;;;5.80;5.20;;;26.20;99.90;;;;;;6085592;23;20209;-76
2021/09/28 10:58:17;;;;;;;5.75;5.25;;;26.30;99.90;;;;;;6085839;23;20204;-76
2021/09/28 11:01:08;;;;;;;5.20;4.80;;;26.20;99.90;;;;;;6085740;23;20284;-76
2021/09/28 11:04:21;;;;;;;5.38;4.88;;;26.50;99.90;;;;;;6085067;23;20208;-75
2021/09/28 11:07:02;;;;;;;5.05;4.65;;;26.50;99.90;;;;;;6077566;23;20689;-76
2021/09/28 11:09:51;;;;;;;4.60;4.30;;;26.50;99.90;;;;;;6085894;23;20201;-75
2021/09/28 11:12:21;;;;;;;5.30;4.85;;;26.70;99.90;;;;;;6085888;23;20205;-76
2021/09/28 11:14:48;;;;;;;4.93;4.30;;;26.70;99.90;;;;;;6085516;23;20576;-76
2021/09/28 11:17:18;;;;;;;4.88;4.32;;;26.60;99.90;;;;;;6085941;23;20204;-77
2021/09/28 11:19:46;;;;;;;4.88;4.47;;;26.50;99.90;;;;;;6084978;23;20210;-76
2021/09/28 11:22:23;;;;;;;4.93;4.53;;;26.40;99.90;;;;;;6086220;23;20235;-75
2021/09/28 11:24:52;;;;;;;5.22;4.82;;;26.40;99.90;;;;;;6085426;23;20212;-76
2021/09/28 11:27:19;;;;;;;5.15;4.75;;;26.40;99.90;;;;;;6086172;23;20209;-76
2021/09/28 11:29:46;;;;;;;4.75;4.35;;;26.10;99.90;;;;;;6083175;23;20213;-75
2021/09/28 11:32:14;;;;;;;4.35;3.95;;;26.00;99.90;;;;;;6084614;23;20264;-77
2021/09/28 11:34:43;;;;;;;4.38;4.00;;;25.90;99.90;;;;;;6084611;23;20594;-76
2021/09/28 11:37:10;;;;;;;4.43;4.03;;;25.90;99.90;;;;;;6084097;23;20708;-76
2021/09/28 11:39:44;;;;;;;5.50;3.90;;;26.10;99.90;;;;;;6084718;23;20608;-76
2021/09/28 11:42:13;;;;;;;5.43;3.88;;;26.20;99.90;;;;;;6084269;23;20530;-75
2021/09/28 11:44:47;;;;;;;3.65;3.35;;;26.40;99.90;;;;;;6082929;23;20280;-75
2021/09/28 11:47:26;;;;;;;3.70;3.35;;;26.30;99.90;;;;;;6084057;23;20210;-75
2021/09/28 11:50:01;;;;;;;3.85;3.55;;;26.30;99.90;;;;;;6082295;23;20714;-75
2021/09/28 11:52:29;;;;;;;4.38;4.00;;;26.00;99.90;;;;;;6086102;23;20213;-74
2021/09/28 11:54:56;;;;;;;3.97;3.67;;;26.00;99.90;;;;;;6084162;23;20209;-73
2021/09/28 11:57:25;;;;;;;4.20;3.90;;;26.00;99.90;;;;;;6086715;23;20276;-74
2021/09/28 11:59:52;;;;;;;4.10;3.80;;;25.80;99.90;;;;;;6086265;23;20382;-75
2021/09/28 12:02:21;;;;;;;3.78;3.47;;;25.70;99.90;;;;;;6087749;23;20260;-73
2021/09/28 12:08:01;;;;;;;3.58;3.28;;;25.70;99.90;;;;;;6064622;23;20220;-75
2021/09/28 12:10:36;;;;;;;4.28;3.45;;;26.00;99.90;;;;;;6073268;23;20225;-74
2021/09/28 12:13:20;;;;;;;3.38;3.13;;;26.10;99.90;;;;;;6086848;23;20247;-74
2021/09/28 12:16:09;;;;;;;3.40;3.17;;;26.20;99.90;;;;;;6087451;23;20210;-73
2021/09/28 12:18:37;;;;;;;3.97;3.67;;;26.00;99.90;;;;;;6086962;23;20205;-74
2021/09/28 12:21:25;;;;;;;3.75;3.45;;;25.80;99.90;;;;;;6087546;23;20205;-75
2021/09/28 12:24:13;;;;;;;4.13;3.83;;;25.70;99.90;;;;;;6087681;23;20276;-74
2021/09/28 12:26:40;;;;;;;4.45;4.00;;;25.70;99.90;;;;;;6087101;23;20206;-74
2021/09/28 12:29:20;;;;;;;4.07;3.78;;;25.80;99.90;;;;;;6086480;23;20235;-75
2021/09/28 12:31:49;;;;;;;4.75;3.88;;;25.50;99.90;;;;;;6088094;23;20236;-75
2021/09/28 12:34:16;;;;;;;4.57;4.18;;;25.10;99.90;;;;;;6086072;23;20216;-74
2021/09/28 12:36:43;;;;;;;4.85;4.10;;;24.80;99.90;;;;;;6086661;23;20209;-74
2021/09/28 12:39:26;;;;;;;4.90;4.40;;;24.80;99.90;;;;;;6086374;23;20273;-74
2021/09/28 12:42:05;;;;;;;4.93;3.67;;;25.10;99.90;;;;;;6087705;23;20244;-74
2021/09/28 12:44:34;;;;;;;4.80;4.40;;;25.30;99.90;;;;;;6088359;23;20203;-75
2021/09/28 12:47:28;;;;;;;5.28;4.85;;;25.30;99.90;;;;;;6088138;23;20300;-76
2021/09/28 12:49:55;;;;;;;4.28;3.92;;;25.00;99.90;;;;;;6085053;23;20651;-73
2021/09/28 12:52:22;;;;;;;4.75;4.35;;;24.90;99.90;;;;;;6086168;23;20243;-75
2021/09/28 12:54:49;;;;;;;5.40;5.00;;;24.80;99.90;;;;;;6087294;23;20745;-76
2021/09/28 12:57:16;;;;;;;4.72;4.30;;;24.80;99.90;;;;;;6087751;23;20273;-76
2021/09/28 12:59:44;;;;;;;5.90;4.55;;;24.80;99.90;;;;;;6086178;23;20233;-74
2021/09/28 13:02:11;;;;;;;5.00;4.43;;;24.90;99.90;;;;;;6086043;23;20209;-75
2021/09/28 13:04:38;;;;;;;4.95;4.45;;;25.00;99.90;;;;;;6086800;23;20217;-76
2021/09/28 13:07:09;;;;;;;4.45;4.05;;;24.90;99.90;;;;;;6086684;23;20205;-75